createdAt,value
2017-12-24T00:01:18.154Z,11.70
2017-12-24T00:03:45.605Z,10.27
2017-12-24T00:06:13.814Z,8.23
2017-12-24T00:08:42.027Z,15.00
2017-12-24T00:11:09.479Z,14.43
2017-12-24T00:13:36.920Z,14.50
2017-12-24T00:16:04.359Z,8.57
2017-12-24T00:18:31.799Z,7.17
2017-12-24T00:20:59.268Z,10.43
2017-12-24T00:23:26.708Z,13.07
2017-12-24T00:25:54.152Z,11.10
2017-12-24T00:28:21.586Z,13.13
2017-12-24T00:30:49.802Z,12.03
2017-12-24T00:33:17.237Z,6.60
2017-12-24T00:35:44.703Z,10.03
2017-12-24T00:38:12.151Z,15.67
2017-12-24T00:40:39.595Z,13.37
2017-12-24T00:43:07.803Z,11.30
2017-12-24T00:45:35.252Z,11.57
2017-12-24T00:48:03.489Z,7.83
2017-12-24T00:50:31.715Z,9.00
2017-12-24T00:52:59.156Z,13.00
2017-12-24T00:55:26.595Z,8.33
2017-12-24T00:57:54.243Z,13.87
2017-12-24T01:00:21.660Z,9.17
2017-12-24T01:02:49.109Z,15.33
2017-12-24T01:05:16.547Z,13.40
2017-12-24T01:07:43.999Z,11.87
2017-12-24T01:10:11.440Z,8.40
2017-12-24T01:12:39.647Z,12.97
2017-12-24T01:15:07.093Z,14.70
2017-12-24T01:17:34.534Z,9.60
2017-12-24T01:20:01.971Z,10.83
2017-12-24T01:22:30.191Z,14.27
2017-12-24T01:24:57.627Z,12.83
2017-12-24T01:27:25.075Z,12.60
2017-12-24T01:29:52.515Z,10.43
2017-12-24T01:32:20.727Z,13.27
2017-12-24T01:34:48.167Z,11.13
2017-12-24T01:37:15.615Z,13.60
2017-12-24T01:39:43.047Z,15.93
2017-12-24T01:42:10.547Z,11.20
2017-12-24T01:44:37.973Z,7.80
2017-12-24T01:47:06.186Z,14.10
2017-12-24T01:49:33.629Z,10.90
2017-12-24T01:52:01.076Z,14.30
2017-12-24T01:54:28.510Z,13.53
2017-12-24T01:56:55.963Z,13.33
2017-12-24T01:59:24.167Z,7.73
2017-12-24T02:01:51.610Z,15.87
2017-12-24T02:04:19.809Z,8.50
2017-12-24T02:06:47.255Z,14.63
2017-12-24T02:09:14.693Z,17.80
2017-12-24T02:11:42.911Z,12.43
2017-12-24T02:14:10.355Z,16.40
2017-12-24T02:16:37.856Z,16.13
2017-12-24T02:19:05.287Z,7.40
2017-12-24T02:21:32.760Z,13.07
2017-12-24T02:24:00.199Z,16.20
2017-12-24T02:26:27.655Z,11.70
2017-12-24T02:28:55.097Z,17.00
2017-12-24T02:31:22.538Z,15.83
2017-12-24T02:33:49.972Z,20.50
2017-12-24T02:36:18.200Z,17.47
2017-12-24T02:38:45.641Z,15.80
2017-12-24T02:41:13.093Z,13.00
2017-12-24T02:43:40.527Z,13.20
2017-12-24T02:46:08.008Z,14.67
2017-12-24T02:48:35.465Z,17.13
2017-12-24T02:51:02.884Z,19.67
2017-12-24T02:53:31.100Z,20.53
2017-12-24T02:55:58.534Z,22.43
2017-12-24T02:58:25.978Z,21.20
2017-12-24T03:00:54.184Z,9.97
2017-12-24T03:03:21.633Z,13.67
2017-12-24T03:05:49.069Z,11.90
2017-12-24T03:08:17.279Z,16.00
2017-12-24T03:10:44.714Z,19.17
2017-12-24T03:13:12.162Z,17.50
2017-12-24T03:15:39.603Z,16.97
2017-12-24T03:18:07.035Z,17.50
2017-12-24T03:20:34.476Z,18.33
2017-12-24T03:23:01.935Z,14.97
2017-12-24T03:25:29.374Z,15.83
2017-12-24T03:27:56.826Z,17.47
2017-12-24T03:30:24.286Z,11.77
2017-12-24T03:32:51.731Z,14.00
2017-12-24T03:35:19.151Z,17.30
2017-12-24T03:37:47.366Z,16.40
2017-12-24T03:40:14.808Z,12.00
2017-12-24T03:42:42.251Z,18.70
2017-12-24T03:45:09.697Z,18.33
2017-12-24T03:47:37.908Z,12.17
2017-12-24T03:50:05.334Z,12.77
2017-12-24T03:52:32.778Z,13.60
2017-12-24T03:55:00.995Z,17.27
2017-12-24T03:57:28.463Z,17.77
2017-12-24T03:59:55.899Z,16.60
2017-12-24T04:02:23.346Z,15.60
2017-12-24T04:04:50.788Z,18.63
2017-12-24T04:07:18.999Z,11.87
2017-12-24T04:09:46.447Z,14.77
2017-12-24T04:12:13.898Z,12.00
2017-12-24T04:14:41.334Z,14.57
2017-12-24T04:17:09.543Z,18.07
2017-12-24T04:19:36.993Z,14.40
2017-12-24T04:22:04.434Z,13.87
2017-12-24T04:24:31.863Z,16.70
2017-12-24T04:27:00.083Z,16.67
2017-12-24T04:29:27.519Z,14.57
2017-12-24T04:31:54.966Z,9.07
2017-12-24T04:34:23.166Z,12.20
2017-12-24T04:36:50.619Z,10.23
2017-12-24T04:39:18.076Z,17.23
2017-12-24T04:41:45.523Z,13.47
2017-12-24T04:44:12.966Z,15.17
2017-12-24T04:46:41.167Z,12.70
2017-12-24T04:49:08.615Z,14.47
2017-12-24T04:51:36.063Z,13.30
2017-12-24T04:54:03.537Z,12.03
2017-12-24T04:56:30.954Z,15.57
2017-12-24T04:58:59.167Z,14.47
2017-12-24T05:01:26.602Z,9.43
2017-12-24T05:03:54.047Z,12.60
2017-12-24T05:06:22.313Z,10.27
2017-12-24T05:08:50.522Z,16.17
2017-12-24T05:11:17.958Z,16.90
2017-12-24T05:13:46.174Z,15.17
2017-12-24T05:16:13.610Z,16.03
2017-12-24T05:18:41.053Z,16.03
2017-12-24T05:21:08.494Z,14.40
2017-12-24T05:23:36.710Z,10.13
2017-12-24T05:26:04.148Z,8.03
2017-12-24T05:28:31.586Z,9.27
2017-12-24T05:30:59.791Z,14.27
2017-12-24T05:33:27.244Z,13.33
2017-12-24T05:35:54.670Z,15.20
2017-12-24T05:38:22.891Z,12.60
2017-12-24T05:40:50.334Z,13.80
2017-12-24T05:43:17.778Z,14.87
2017-12-24T05:45:45.222Z,14.17
2017-12-24T05:48:13.426Z,13.93
2017-12-24T05:50:40.875Z,12.77
2017-12-24T05:53:08.320Z,14.90
2017-12-24T05:55:35.762Z,15.37
2017-12-24T05:58:03.970Z,10.30
2017-12-24T06:00:31.419Z,12.20
2017-12-24T06:02:58.863Z,11.10
2017-12-24T06:05:26.319Z,11.63
2017-12-24T06:07:53.767Z,10.93
2017-12-24T06:10:21.968Z,5.27
2017-12-24T06:12:49.420Z,14.43
2017-12-24T06:15:16.859Z,11.77
2017-12-24T06:17:44.301Z,13.93
2017-12-24T06:20:12.503Z,11.73
2017-12-24T06:22:39.948Z,15.70
2017-12-24T06:25:07.380Z,15.20
2017-12-24T06:27:34.810Z,11.20
2017-12-24T06:30:02.254Z,12.07
2017-12-24T06:32:29.699Z,13.23
2017-12-24T06:34:57.143Z,13.30
2017-12-24T06:37:24.574Z,11.77
2017-12-24T06:39:52.791Z,11.63
2017-12-24T06:42:20.231Z,8.77
2017-12-24T06:44:47.674Z,12.33
2017-12-24T06:47:15.111Z,12.23
2017-12-24T06:49:43.323Z,11.90
2017-12-24T06:52:17.887Z,9.20
2017-12-24T06:54:45.326Z,9.07
2017-12-24T06:57:12.763Z,12.53
2017-12-24T06:59:40.207Z,13.37
2017-12-24T07:02:07.655Z,13.80
2017-12-24T07:04:35.107Z,14.17
2017-12-24T07:07:02.542Z,9.80
2017-12-24T07:09:30.754Z,13.27
2017-12-24T07:11:58.190Z,8.33
2017-12-24T07:14:25.639Z,14.43
2017-12-24T07:16:53.840Z,9.33
2017-12-24T07:19:21.287Z,9.00
2017-12-24T07:21:48.722Z,13.33
2017-12-24T07:24:16.934Z,12.87
2017-12-24T07:26:44.374Z,13.27
2017-12-24T07:29:11.818Z,7.50
2017-12-24T07:31:39.257Z,9.03
2017-12-24T07:34:06.728Z,10.97
2017-12-24T07:36:34.932Z,13.17
2017-12-24T07:39:02.377Z,12.23
2017-12-24T07:41:29.821Z,12.60
2017-12-24T07:43:58.032Z,12.20
2017-12-24T07:46:25.467Z,11.13
2017-12-24T07:48:52.923Z,12.03
2017-12-24T07:51:20.346Z,12.00
2017-12-24T07:53:48.560Z,12.10
2017-12-24T07:56:15.991Z,12.47
2017-12-24T07:58:44.199Z,11.60
2017-12-24T08:01:11.635Z,11.93
2017-12-24T08:03:39.074Z,7.17
2017-12-24T08:06:07.273Z,16.33
2017-12-24T08:08:34.710Z,11.40
2017-12-24T08:11:02.150Z,10.90
2017-12-24T08:13:30.360Z,11.77
2017-12-24T08:15:57.798Z,10.90
2017-12-24T08:18:25.237Z,7.30
2017-12-24T08:20:53.455Z,16.10
2017-12-24T08:23:21.279Z,13.33
2017-12-24T08:25:48.709Z,11.83
2017-12-24T08:28:16.142Z,13.17
2017-12-24T08:30:43.591Z,13.40
2017-12-24T08:33:11.031Z,13.90
2017-12-24T08:35:38.475Z,11.37
2017-12-24T08:38:05.914Z,12.93
2017-12-24T08:40:34.122Z,9.93
2017-12-24T08:43:01.562Z,10.73
2017-12-24T08:45:29.006Z,11.20
2017-12-24T08:47:57.280Z,9.83
2017-12-24T08:50:24.651Z,11.13
2017-12-24T08:52:52.088Z,9.40
2017-12-24T08:55:20.304Z,10.63
2017-12-24T08:57:47.744Z,11.90
2017-12-24T09:00:15.187Z,8.03
2017-12-24T09:02:43.393Z,10.37
2017-12-24T09:05:10.834Z,7.77
2017-12-24T09:07:38.267Z,8.10
2017-12-24T09:10:06.485Z,5.10
2017-12-24T09:12:33.916Z,11.03
2017-12-24T09:15:01.358Z,9.13
2017-12-24T09:17:29.559Z,8.13
2017-12-24T09:19:56.999Z,9.47
2017-12-24T09:22:24.443Z,8.57
2017-12-24T09:24:52.658Z,9.53
2017-12-24T09:27:20.091Z,10.07
2017-12-24T09:29:47.530Z,9.77
2017-12-24T09:32:15.731Z,5.73
2017-12-24T09:34:43.171Z,7.23
2017-12-24T09:37:10.610Z,10.17
2017-12-24T09:39:38.816Z,9.17
2017-12-24T09:42:06.251Z,8.60
2017-12-24T09:44:35.584Z,7.00
2017-12-24T09:47:03.007Z,8.50
2017-12-24T09:49:31.228Z,8.97
2017-12-24T09:51:58.666Z,6.10
2017-12-24T09:54:26.112Z,6.03
2017-12-24T09:56:53.551Z,6.03
2017-12-24T09:59:21.754Z,7.93
2017-12-24T10:01:49.190Z,8.50
2017-12-24T10:04:16.627Z,7.40
2017-12-24T10:06:44.835Z,7.50
2017-12-24T10:09:12.283Z,7.17
2017-12-24T10:11:39.706Z,6.10
2017-12-24T10:14:07.142Z,6.00
2017-12-24T10:16:34.592Z,5.97
2017-12-24T10:19:02.022Z,5.87
2017-12-24T10:21:29.500Z,7.90
2017-12-24T10:23:56.935Z,8.50
2017-12-24T10:26:24.386Z,7.73
2017-12-24T10:28:51.830Z,5.17
2017-12-24T10:31:19.275Z,6.40
2017-12-24T10:33:47.489Z,10.00
2017-12-24T10:36:14.935Z,6.77
2017-12-24T10:38:42.371Z,8.07
2017-12-24T10:41:10.590Z,8.83
2017-12-24T10:43:38.030Z,4.23
2017-12-24T10:46:05.467Z,5.90
2017-12-24T10:48:32.909Z,8.30
2017-12-24T10:51:01.119Z,5.97
2017-12-24T10:53:28.561Z,6.03
2017-12-24T10:55:56.026Z,8.37
2017-12-24T10:58:23.446Z,6.43
2017-12-24T11:00:51.651Z,8.03
2017-12-24T11:03:19.087Z,7.30
2017-12-24T11:05:46.526Z,8.50
2017-12-24T11:08:14.730Z,6.67
2017-12-24T11:10:42.175Z,4.30
2017-12-24T11:13:09.614Z,6.47
2017-12-24T11:15:37.826Z,6.80
2017-12-24T11:18:05.272Z,6.30
2017-12-24T11:20:32.702Z,4.80
2017-12-24T11:23:00.915Z,6.63
2017-12-24T11:25:28.375Z,5.33
2017-12-24T11:27:55.807Z,6.00
2017-12-24T11:30:23.243Z,6.37
2017-12-24T11:32:50.681Z,6.50
2017-12-24T11:35:18.123Z,3.10
2017-12-24T11:37:45.555Z,2.13
2017-12-24T11:40:13.002Z,5.30
2017-12-24T11:42:40.440Z,3.57
2017-12-24T11:45:08.650Z,6.83
2017-12-24T11:47:36.094Z,4.23
2017-12-24T11:50:03.527Z,3.93
2017-12-24T11:52:31.732Z,4.00
2017-12-24T11:54:59.172Z,5.57
2017-12-24T11:57:26.599Z,4.90
2017-12-24T11:59:54.809Z,5.30
2017-12-24T12:02:22.245Z,6.13
2017-12-24T12:04:49.687Z,5.20
2017-12-24T12:07:17.886Z,6.13
2017-12-24T12:09:45.318Z,6.53
2017-12-24T12:12:13.527Z,4.90
2017-12-24T12:14:40.954Z,5.07
2017-12-24T12:17:09.163Z,4.27
2017-12-24T12:19:36.601Z,7.03
2017-12-24T12:22:04.044Z,6.10
2017-12-24T12:24:32.239Z,5.43
2017-12-24T12:26:59.688Z,8.00
2017-12-24T12:29:27.114Z,7.80
2017-12-24T12:31:54.554Z,6.50
2017-12-24T12:34:21.986Z,6.70
2017-12-24T12:36:49.438Z,8.87
2017-12-24T12:39:16.874Z,7.70
2017-12-24T12:41:44.326Z,9.90
2017-12-24T12:44:11.758Z,7.00
2017-12-24T12:46:39.976Z,7.90
2017-12-24T12:49:07.400Z,4.73
2017-12-24T12:51:35.604Z,7.83
2017-12-24T12:54:03.041Z,6.80
2017-12-24T12:56:30.478Z,7.00
2017-12-24T12:58:58.675Z,6.43
2017-12-24T13:01:26.110Z,6.10
2017-12-24T13:03:54.315Z,6.27
2017-12-24T13:06:21.754Z,3.07
2017-12-24T13:08:49.184Z,4.37
2017-12-24T13:11:16.622Z,3.33
2017-12-24T13:13:44.064Z,4.30
2017-12-24T13:16:11.510Z,5.00
2017-12-24T13:18:38.947Z,3.70
2017-12-24T13:21:06.391Z,5.50
2017-12-24T13:23:33.828Z,3.43
2017-12-24T13:26:02.028Z,4.50
2017-12-24T13:28:29.459Z,3.87
2017-12-24T13:30:57.668Z,4.73
2017-12-24T13:33:25.099Z,4.10
2017-12-24T13:35:53.311Z,3.83
2017-12-24T13:38:20.743Z,5.13
2017-12-24T13:40:48.188Z,3.73
2017-12-24T13:43:16.379Z,3.53
2017-12-24T13:45:43.827Z,3.90
2017-12-24T13:48:11.262Z,5.03
2017-12-24T13:50:39.468Z,4.43
2017-12-24T13:53:06.899Z,4.37
2017-12-24T13:55:35.163Z,4.73
2017-12-24T13:58:02.596Z,2.03
2017-12-24T14:00:30.046Z,3.50
2017-12-24T14:02:57.476Z,5.70
2017-12-24T14:05:24.911Z,5.03
2017-12-24T14:07:52.342Z,3.43
2017-12-24T14:10:20.539Z,4.97
2017-12-24T14:12:47.985Z,4.77
2017-12-24T14:15:16.183Z,3.20
2017-12-24T14:17:43.632Z,4.90
2017-12-24T14:20:11.066Z,3.23
2017-12-24T14:22:39.271Z,4.87
2017-12-24T14:25:06.711Z,5.33
2017-12-24T14:27:34.916Z,6.53
2017-12-24T14:30:02.365Z,4.10
2017-12-24T14:32:29.795Z,7.00
2017-12-24T14:34:57.992Z,3.37
2017-12-24T14:37:25.442Z,4.77
2017-12-24T14:39:52.870Z,5.03
2017-12-24T14:42:21.081Z,4.30
2017-12-24T14:44:48.522Z,4.73
2017-12-24T14:47:15.962Z,2.73
2017-12-24T14:49:44.164Z,5.10
2017-12-24T14:52:11.603Z,4.73
2017-12-24T14:54:39.044Z,6.90
2017-12-24T14:57:07.252Z,9.40
2017-12-24T14:59:34.685Z,6.77
2017-12-24T15:02:03.670Z,8.40
2017-12-24T15:04:31.873Z,10.70
2017-12-24T15:06:59.311Z,9.27
2017-12-24T15:09:26.751Z,8.87
2017-12-24T15:11:54.970Z,11.87
2017-12-24T15:14:22.402Z,6.13
2017-12-24T15:16:49.847Z,12.37
2017-12-24T15:19:18.047Z,10.80
2017-12-24T15:21:45.497Z,8.73
2017-12-24T15:24:12.928Z,10.40
2017-12-24T15:26:41.142Z,6.20
2017-12-24T15:29:08.599Z,9.87
2017-12-24T15:31:36.043Z,10.63
2017-12-24T15:34:03.484Z,11.13
2017-12-24T15:36:31.691Z,13.83
2017-12-24T15:38:59.130Z,11.27
2017-12-24T15:41:26.579Z,10.40
2017-12-24T15:43:54.020Z,6.93
2017-12-24T15:46:22.226Z,11.60
2017-12-24T15:48:49.667Z,10.87
2017-12-24T15:51:17.131Z,10.50
2017-12-24T15:53:44.566Z,6.23
2017-12-24T15:56:12.771Z,7.50
2017-12-24T15:58:40.220Z,8.80
2017-12-24T16:01:07.653Z,10.07
2017-12-24T16:03:35.894Z,10.07
2017-12-24T16:06:03.339Z,8.80
2017-12-24T16:08:30.807Z,10.97
2017-12-24T16:10:58.230Z,10.87
2017-12-24T16:13:25.674Z,9.27
2017-12-24T16:15:53.110Z,10.77
2017-12-24T16:18:21.324Z,6.33
2017-12-24T16:20:48.759Z,12.50
2017-12-24T16:23:16.204Z,10.70
2017-12-24T16:25:44.406Z,9.10
2017-12-24T16:28:11.856Z,15.53
2017-12-24T16:30:39.290Z,11.20
2017-12-24T16:33:06.747Z,11.43
2017-12-24T16:35:34.189Z,9.20
2017-12-24T16:38:02.395Z,7.17
2017-12-24T16:40:29.832Z,9.10
2017-12-24T16:42:58.048Z,8.93
2017-12-24T16:45:25.479Z,7.23
2017-12-24T16:47:52.919Z,7.23
2017-12-24T16:50:21.123Z,11.67
2017-12-24T16:52:48.568Z,9.67
2017-12-24T16:55:16.004Z,7.37
2017-12-24T16:57:44.220Z,12.10
2017-12-24T17:00:11.655Z,12.63
2017-12-24T17:02:39.096Z,8.43
2017-12-24T17:05:06.526Z,9.57
2017-12-24T17:07:33.971Z,10.87
2017-12-24T17:10:01.414Z,10.70
2017-12-24T17:12:28.855Z,12.17
2017-12-24T17:14:56.291Z,11.17
2017-12-24T17:17:23.739Z,11.10
2017-12-24T17:19:51.176Z,9.90
2017-12-24T17:22:19.389Z,8.93
2017-12-24T17:24:46.819Z,13.37
2017-12-24T17:27:14.263Z,12.43
2017-12-24T17:29:42.463Z,8.63
2017-12-24T17:32:09.903Z,9.53
2017-12-24T17:34:38.111Z,10.60
2017-12-24T17:37:05.559Z,10.10
2017-12-24T17:39:32.993Z,7.93
2017-12-24T17:42:01.203Z,9.00
2017-12-24T17:44:28.647Z,9.80
2017-12-24T17:46:56.092Z,10.97
2017-12-24T17:49:23.526Z,12.03
2017-12-24T17:51:51.727Z,7.67
2017-12-24T17:54:19.172Z,9.97
2017-12-24T17:56:46.602Z,6.80
2017-12-24T17:59:14.043Z,8.77
2017-12-24T18:01:41.479Z,6.77
2017-12-24T18:04:08.927Z,8.90
2017-12-24T18:06:36.386Z,10.10
2017-12-24T18:09:03.823Z,7.60
2017-12-24T18:11:31.259Z,11.17
2017-12-24T18:13:59.467Z,8.70
2017-12-24T18:16:26.903Z,8.37
2017-12-24T18:18:54.344Z,10.97
2017-12-24T18:21:22.558Z,10.33
2017-12-24T18:23:49.995Z,7.17
2017-12-24T18:26:17.431Z,7.43
2017-12-24T18:28:45.637Z,8.80
2017-12-24T18:31:13.075Z,13.20
2017-12-24T18:33:40.515Z,11.47
2017-12-24T18:36:08.715Z,12.47
2017-12-24T18:38:36.163Z,12.30
2017-12-24T18:41:03.599Z,12.50
2017-12-24T18:43:31.809Z,15.13
2017-12-24T18:45:59.253Z,11.70
2017-12-24T18:48:26.720Z,11.33
2017-12-24T18:50:54.145Z,14.67
2017-12-24T18:53:23.151Z,12.87
2017-12-24T18:55:50.587Z,13.60
2017-12-24T18:58:18.807Z,14.90
2017-12-24T19:00:46.248Z,16.07
2017-12-24T19:03:13.687Z,13.60
2017-12-24T19:05:41.892Z,10.97
2017-12-24T19:08:09.346Z,16.03
2017-12-24T19:10:36.775Z,17.50
2017-12-24T19:13:05.028Z,17.27
2017-12-24T19:15:32.462Z,14.73
2017-12-24T19:17:59.914Z,15.93
2017-12-24T19:20:27.351Z,12.17
2017-12-24T19:22:54.804Z,15.30
2017-12-24T19:25:22.243Z,15.10
2017-12-24T19:27:49.689Z,15.87
2017-12-24T19:30:17.141Z,16.17
2017-12-24T19:32:45.347Z,17.00
2017-12-24T19:35:12.787Z,14.57
2017-12-24T19:37:40.223Z,13.70
2017-12-24T19:40:07.671Z,15.83
2017-12-24T19:42:35.108Z,14.90
2017-12-24T19:45:02.563Z,13.37
2017-12-24T19:47:29.999Z,9.27
2017-12-24T19:49:57.439Z,13.20
2017-12-24T19:52:24.880Z,15.03
2017-12-24T19:54:52.323Z,11.97
2017-12-24T19:57:20.539Z,16.10
2017-12-24T19:59:47.998Z,14.10
2017-12-24T20:02:15.440Z,14.30
2017-12-24T20:04:42.894Z,16.60
2017-12-24T20:07:10.326Z,10.70
2017-12-24T20:09:38.558Z,10.30
2017-12-24T20:12:06.008Z,8.87
2017-12-24T20:14:33.448Z,10.27
2017-12-24T20:17:00.881Z,9.27
2017-12-24T20:19:28.323Z,13.63
2017-12-24T20:21:56.524Z,14.40
2017-12-24T20:24:24.375Z,9.37
2017-12-24T20:26:51.812Z,10.57
2017-12-24T20:29:20.047Z,11.00
2017-12-24T20:31:47.495Z,8.60
2017-12-24T20:34:20.711Z,12.60
2017-12-24T20:36:48.152Z,8.37
2017-12-24T20:39:15.595Z,10.93
2017-12-24T20:41:43.036Z,9.90
2017-12-24T20:44:10.476Z,13.20
2017-12-24T20:46:37.918Z,9.93
2017-12-24T20:49:06.123Z,12.37
2017-12-24T20:51:33.567Z,8.87
2017-12-24T20:54:01.000Z,9.10
2017-12-24T20:56:29.214Z,10.43
2017-12-24T20:58:56.653Z,8.40
2017-12-24T21:01:24.090Z,5.40
2017-12-24T21:03:52.295Z,10.20
2017-12-24T21:06:19.736Z,9.30
2017-12-24T21:08:47.175Z,9.87
2017-12-24T21:11:15.380Z,8.53
2017-12-24T21:13:42.839Z,6.77
2017-12-24T21:16:10.273Z,5.10
2017-12-24T21:18:38.468Z,7.60
2017-12-24T21:21:05.899Z,6.07
2017-12-24T21:23:34.099Z,4.10
2017-12-24T21:26:01.538Z,4.23
2017-12-24T21:28:29.040Z,7.63
2017-12-24T21:30:56.483Z,9.03
2017-12-24T21:33:23.919Z,6.40
2017-12-24T21:35:51.350Z,5.20
2017-12-24T21:38:19.556Z,5.90
2017-12-24T21:40:46.990Z,8.40
2017-12-24T21:43:15.199Z,7.40
2017-12-24T21:45:42.638Z,7.50
2017-12-24T21:48:10.086Z,9.03
2017-12-24T21:50:37.520Z,8.47
2017-12-24T21:53:05.725Z,5.40
2017-12-24T21:55:33.167Z,7.17
2017-12-24T21:58:01.391Z,6.23
2017-12-24T22:00:28.810Z,9.10
2017-12-24T22:02:56.250Z,9.00
2017-12-24T22:05:24.450Z,5.60
2017-12-24T22:07:51.898Z,8.37
2017-12-24T22:10:19.327Z,5.87
2017-12-24T22:12:47.538Z,9.93
2017-12-24T22:15:14.974Z,7.53
2017-12-24T22:17:42.415Z,6.23
2017-12-24T22:20:10.614Z,7.13
2017-12-24T22:22:38.063Z,5.63
2017-12-24T22:25:05.496Z,6.37
2017-12-24T22:27:33.704Z,5.70
2017-12-24T22:30:01.140Z,4.67
2017-12-24T22:32:29.346Z,6.20
2017-12-24T22:34:57.214Z,4.80
2017-12-24T22:37:24.659Z,5.80
2017-12-24T22:39:52.094Z,4.80
2017-12-24T22:42:20.306Z,3.83
2017-12-24T22:44:47.767Z,3.70
2017-12-24T22:47:15.195Z,4.50
2017-12-24T22:49:42.631Z,4.63
2017-12-24T22:52:10.832Z,4.37
2017-12-24T22:54:38.397Z,3.13
2017-12-24T22:57:05.833Z,1.60
2017-12-24T22:59:33.270Z,5.77
2017-12-24T23:02:01.475Z,2.13
2017-12-24T23:04:28.926Z,4.90
2017-12-24T23:06:56.362Z,5.37
2017-12-24T23:09:24.574Z,7.03
2017-12-24T23:11:52.007Z,5.27
2017-12-24T23:14:19.446Z,5.40
2017-12-24T23:16:47.647Z,5.10
2017-12-24T23:19:15.088Z,2.57
2017-12-24T23:21:43.283Z,2.57
2017-12-24T23:24:10.722Z,5.97
2017-12-24T23:26:38.155Z,4.20
2017-12-24T23:29:06.367Z,3.60
2017-12-24T23:31:33.823Z,7.67
2017-12-24T23:34:01.263Z,5.43
2017-12-24T23:36:28.700Z,6.20
2017-12-24T23:38:56.140Z,5.00
2017-12-24T23:41:23.567Z,6.30
2017-12-24T23:43:51.050Z,3.77
2017-12-24T23:46:18.489Z,4.97
2017-12-24T23:48:45.920Z,3.87
2017-12-24T23:51:13.381Z,6.97
2017-12-24T23:53:40.802Z,6.43
2017-12-24T23:56:09.009Z,7.17
2017-12-24T23:58:36.442Z,5.80
